createdAt,value
2017-05-26T00:00:19.554Z,32.67
2017-05-26T00:01:29.842Z,32.57
2017-05-26T00:02:40.117Z,32.57
2017-05-26T00:03:50.466Z,32.47
2017-05-26T00:05:00.378Z,32.47
2017-05-26T00:06:10.661Z,32.76
2017-05-26T00:07:20.945Z,32.67
2017-05-26T00:08:30.990Z,32.95
2017-05-26T00:09:41.267Z,32.95
2017-05-26T00:10:51.499Z,32.67
2017-05-26T00:12:01.779Z,32.76
2017-05-26T00:13:12.070Z,32.57
2017-05-26T00:14:22.351Z,32.86
2017-05-26T00:15:32.632Z,32.75
2017-05-26T00:16:43.177Z,32.75
2017-05-26T00:17:53.151Z,32.67
2017-05-26T00:19:03.432Z,32.95
2017-05-26T00:20:13.402Z,32.67
2017-05-26T00:21:23.395Z,32.86
2017-05-26T00:22:33.922Z,32.86
2017-05-26T00:23:44.196Z,32.75
2017-05-26T00:24:54.171Z,32.65
2017-05-26T00:26:04.455Z,32.86
2017-05-26T00:27:14.743Z,32.95
2017-05-26T00:28:25.275Z,32.84
2017-05-26T00:29:35.554Z,32.84
2017-05-26T00:30:45.828Z,32.94
2017-05-26T00:31:56.107Z,32.95
2017-05-26T00:33:06.384Z,33.05
2017-05-26T00:34:16.289Z,32.84
2017-05-26T00:35:26.563Z,33.05
2017-05-26T00:36:36.864Z,32.95
2017-05-26T00:37:47.143Z,33.15
2017-05-26T00:38:57.423Z,32.94
2017-05-26T00:40:07.956Z,33.05
2017-05-26T00:41:18.233Z,33.13
2017-05-26T00:42:28.205Z,33.05
2017-05-26T00:43:38.484Z,32.94
2017-05-26T00:44:48.773Z,33.03
2017-05-26T00:45:59.308Z,32.94
2017-05-26T00:47:09.278Z,33.25
2017-05-26T00:48:19.248Z,33.05
2017-05-26T00:49:29.516Z,33.03
2017-05-26T00:50:39.793Z,33.23
2017-05-26T00:51:50.016Z,33.23
2017-05-26T00:52:59.691Z,33.25
2017-05-26T00:54:09.660Z,33.23
2017-05-26T00:55:19.948Z,33.34
2017-05-26T00:56:29.925Z,33.13
2017-05-26T00:57:40.141Z,33.13
2017-05-26T00:58:50.427Z,33.03
2017-05-26T01:00:00.732Z,33.23
2017-05-26T01:01:10.706Z,33.23
2017-05-26T01:02:20.681Z,33.13
2017-05-26T01:03:31.259Z,33.23
2017-05-26T01:04:41.224Z,33.42
2017-05-26T01:05:51.562Z,32.94
2017-05-26T01:07:01.529Z,32.84
2017-05-26T01:08:11.806Z,33.42
2017-05-26T01:09:22.029Z,33.33
2017-05-26T01:10:32.315Z,33.13
2017-05-26T01:11:42.288Z,33.23
2017-05-26T01:12:52.572Z,33.33
2017-05-26T01:14:02.848Z,33.13
2017-05-26T01:15:13.071Z,33.42
2017-05-26T01:16:23.045Z,33.05
2017-05-26T01:17:33.342Z,33.05
2017-05-26T01:18:43.631Z,33.13
2017-05-26T01:19:53.596Z,33.33
2017-05-26T01:21:04.131Z,33.13
2017-05-26T01:22:14.418Z,33.33
2017-05-26T01:23:24.696Z,33.33
2017-05-26T01:24:34.986Z,33.13
2017-05-26T01:25:45.271Z,33.23
2017-05-26T01:26:55.815Z,33.13
2017-05-26T01:28:06.094Z,33.13
2017-05-26T01:29:16.381Z,33.03
2017-05-26T01:30:26.353Z,33.53
2017-05-26T01:31:36.624Z,33.61
2017-05-26T01:32:46.850Z,33.42
2017-05-26T01:33:57.139Z,33.51
2017-05-26T01:35:07.424Z,33.71
2017-05-26T01:36:17.707Z,33.61
2017-05-26T01:37:27.986Z,33.71
2017-05-26T01:38:38.203Z,33.81
2017-05-26T01:39:48.561Z,33.81
2017-05-26T01:40:58.847Z,33.81
2017-05-26T01:42:08.824Z,34
2017-05-26T01:43:18.788Z,33.91
2017-05-26T01:44:29.369Z,34
2017-05-26T01:45:39.025Z,33.91
2017-05-26T01:46:48.992Z,34
2017-05-26T01:47:59.281Z,33.91
2017-05-26T01:49:09.247Z,33.81
2017-05-26T01:50:19.778Z,33.71
2017-05-26T01:51:30.057Z,33.61
2017-05-26T01:52:40.340Z,34.29
2017-05-26T01:53:50.617Z,34.29
2017-05-26T01:55:00.910Z,34.09
2017-05-26T01:56:11.128Z,34.19
2017-05-26T01:57:21.408Z,34.19
2017-05-26T01:58:31.684Z,34.19
2017-05-26T01:59:41.968Z,34
2017-05-26T02:00:52.247Z,34.09
2017-05-26T02:02:02.469Z,34
2017-05-26T02:03:12.748Z,34.09
2017-05-26T02:04:23.023Z,34.19
2017-05-26T02:05:32.996Z,34.19
2017-05-26T02:06:43.273Z,34.19
2017-05-26T02:07:53.817Z,34.19
2017-05-26T02:09:04.099Z,34.29
2017-05-26T02:10:14.062Z,34.09
2017-05-26T02:11:24.340Z,34.19
2017-05-26T02:12:34.307Z,34.48
2017-05-26T02:13:44.841Z,34.48
2017-05-26T02:14:55.124Z,34.38
2017-05-26T02:16:04.781Z,34.29
2017-05-26T02:17:15.058Z,34.58
2017-05-26T02:18:25.026Z,34.38
2017-05-26T02:19:35.246Z,34.29
2017-05-26T02:20:45.526Z,34.29
2017-05-26T02:21:55.888Z,34.38
2017-05-26T02:23:05.852Z,34.29
2017-05-26T02:24:16.145Z,34.29
2017-05-26T02:25:26.364Z,34.29
2017-05-26T02:26:36.636Z,34.38
2017-05-26T02:27:46.916Z,34.38
2017-05-26T02:28:57.215Z,34.58
2017-05-26T02:30:07.183Z,34.58
2017-05-26T02:31:17.709Z,34.48
2017-05-26T02:32:27.683Z,34.48
2017-05-26T02:33:37.650Z,34.48
2017-05-26T02:34:47.930Z,34.58
2017-05-26T02:35:57.896Z,34.67
2017-05-26T02:37:08.429Z,34.77
2017-05-26T02:38:18.395Z,34.58
2017-05-26T02:39:28.385Z,34.67
2017-05-26T02:40:38.661Z,34.77
2017-05-26T02:41:48.937Z,34.86
2017-05-26T02:42:59.470Z,34.96
2017-05-26T02:44:09.743Z,35.16
2017-05-26T02:45:19.718Z,35.25
2017-05-26T02:46:29.997Z,35.16
2017-05-26T02:47:40.283Z,35.16
2017-05-26T02:48:50.816Z,35.25
2017-05-26T02:50:01.107Z,35.16
2017-05-26T02:51:11.075Z,35.06
2017-05-26T02:52:21.358Z,35.35
2017-05-26T02:53:31.331Z,35.16
2017-05-26T02:54:41.545Z,35.25
2017-05-26T02:55:51.833Z,35.25
2017-05-26T02:57:02.118Z,35.35
2017-05-26T02:58:12.402Z,35.35
2017-05-26T02:59:22.681Z,35.25
2017-05-26T03:00:32.609Z,35.35
2017-05-26T03:01:42.570Z,35.44
2017-05-26T03:02:52.847Z,35.25
2017-05-26T03:04:03.122Z,35.25
2017-05-26T03:05:13.409Z,35.64
2017-05-26T03:06:23.944Z,35.64
2017-05-26T03:07:33.912Z,35.64
2017-05-26T03:08:44.205Z,35.73
2017-05-26T03:09:54.484Z,35.54
2017-05-26T03:11:04.459Z,35.64
2017-05-26T03:12:14.675Z,35.93
2017-05-26T03:13:25.011Z,35.93
2017-05-26T03:14:35.390Z,35.93
2017-05-26T03:15:45.673Z,35.83
2017-05-26T03:16:56.015Z,35.83
2017-05-26T03:18:06.244Z,36.02
2017-05-26T03:19:16.529Z,36.11
2017-05-26T03:20:26.496Z,36.11
2017-05-26T03:21:36.771Z,36.02
2017-05-26T03:22:47.061Z,36.02
2017-05-26T03:23:57.588Z,36.11
2017-05-26T03:25:07.871Z,36.11
2017-05-26T03:26:18.154Z,36.02
2017-05-26T03:27:28.437Z,36.02
2017-05-26T03:28:38.723Z,35.83
2017-05-26T03:29:49.325Z,35.93
2017-05-26T03:30:59.606Z,35.73
2017-05-26T03:32:09.891Z,36.11
2017-05-26T03:33:20.168Z,36.11
2017-05-26T03:34:30.133Z,36.31
2017-05-26T03:35:40.665Z,36.41
2017-05-26T03:36:50.633Z,36.41
2017-05-26T03:38:00.600Z,36.21
2017-05-26T03:39:10.570Z,36.51
2017-05-26T03:40:20.852Z,36.41
2017-05-26T03:41:31.088Z,36.31
2017-05-26T03:42:41.366Z,36.11
2017-05-26T03:43:51.643Z,36.02
2017-05-26T03:45:01.935Z,36.11
2017-05-26T03:46:11.897Z,36.21
2017-05-26T03:47:22.436Z,36.21
2017-05-26T03:48:32.717Z,36.51
2017-05-26T03:49:42.998Z,36.79
2017-05-26T03:50:53.283Z,36.79
2017-05-26T03:52:03.573Z,36.79
2017-05-26T03:53:14.106Z,36.89
2017-05-26T03:54:24.078Z,36.79
2017-05-26T03:55:34.049Z,36.89
2017-05-26T03:56:44.345Z,36.89
2017-05-26T03:57:54.624Z,36.89
2017-05-26T03:59:05.160Z,36.79
2017-05-26T04:00:15.447Z,36.89
2017-05-26T04:01:25.409Z,36.89
2017-05-26T04:02:35.706Z,36.89
2017-05-26T04:03:45.997Z,36.69
2017-05-26T04:04:56.557Z,36.91
2017-05-26T04:06:06.525Z,36.79
2017-05-26T04:07:16.492Z,36.81
2017-05-26T04:08:26.776Z,36.89
2017-05-26T04:09:37.050Z,36.79
2017-05-26T04:10:47.583Z,36.81
2017-05-26T04:11:57.862Z,36.91
2017-05-26T04:13:08.538Z,37.1
2017-05-26T04:14:18.520Z,37.29
2017-05-26T04:15:28.808Z,37.1
2017-05-26T04:16:39.022Z,37.1
2017-05-26T04:17:49.310Z,37.29
2017-05-26T04:18:59.595Z,37.48
2017-05-26T04:20:09.878Z,37.48
2017-05-26T04:21:20.148Z,37.29
2017-05-26T04:22:30.374Z,37.87
2017-05-26T04:23:40.345Z,37.48
2017-05-26T04:24:50.640Z,37.48
2017-05-26T04:26:00.927Z,37.58
2017-05-26T04:27:11.206Z,37.39
2017-05-26T04:28:21.789Z,37.39
2017-05-26T04:29:32.140Z,37.58
2017-05-26T04:30:42.422Z,37.68
2017-05-26T04:31:52.702Z,37.87
2017-05-26T04:33:02.670Z,37.58
2017-05-26T04:34:13.224Z,37.77
2017-05-26T04:35:23.197Z,38.06
2017-05-26T04:36:33.475Z,38.06
2017-05-26T04:37:43.457Z,38.16
2017-05-26T04:38:53.743Z,38.06
2017-05-26T04:40:03.953Z,38.35
2017-05-26T04:41:14.236Z,38.45
2017-05-26T04:42:24.668Z,37.96
2017-05-26T04:43:34.946Z,38.64
2017-05-26T04:44:44.920Z,38.06
2017-05-26T04:45:55.147Z,37.96
2017-05-26T04:47:05.114Z,38.06
2017-05-26T04:48:15.402Z,38.26
2017-05-26T04:49:25.686Z,38.64
2017-05-26T04:50:35.977Z,38.26
2017-05-26T04:51:46.505Z,38.35
2017-05-26T04:52:56.782Z,38.26
2017-05-26T04:54:06.756Z,38.06
2017-05-26T04:55:16.723Z,38.26
2017-05-26T04:56:27.004Z,38.64
2017-05-26T04:57:36.971Z,38.93
2017-05-26T04:58:47.255Z,38.45
2017-05-26T04:59:57.535Z,38.83
2017-05-26T05:01:07.523Z,38.45
2017-05-26T05:02:17.791Z,38.64
2017-05-26T05:03:28.326Z,38.54
2017-05-26T05:04:38.608Z,38.64
2017-05-26T05:05:48.892Z,38.93
2017-05-26T05:06:59.183Z,38.54
2017-05-26T05:08:09.463Z,38.56
2017-05-26T05:09:19.998Z,38.83
2017-05-26T05:10:29.974Z,39.24
2017-05-26T05:11:40.267Z,38.66
2017-05-26T05:12:50.547Z,39.14
2017-05-26T05:14:00.828Z,38.56
2017-05-26T05:15:11.063Z,39.34
2017-05-26T05:16:21.347Z,39.14
2017-05-26T05:17:31.625Z,38.76
2017-05-26T05:18:41.595Z,38.95
2017-05-26T05:19:51.586Z,39.04
2017-05-26T05:21:01.871Z,39.53
2017-05-26T05:22:11.842Z,39.43
2017-05-26T05:23:21.877Z,39.34
2017-05-26T05:24:32.160Z,39.34
2017-05-26T05:25:42.446Z,39.72
2017-05-26T05:26:52.662Z,38.95
2017-05-26T05:28:02.940Z,39.34
2017-05-26T05:29:13.244Z,39.62
2017-05-26T05:30:23.219Z,39.72
2017-05-26T05:31:33.192Z,39.34
2017-05-26T05:32:43.738Z,39.82
2017-05-26T05:33:54.024Z,39.82
2017-05-26T05:35:04.325Z,39.53
2017-05-26T05:36:14.616Z,39.72
2017-05-26T05:37:24.581Z,39.34
2017-05-26T05:38:34.499Z,39.34
2017-05-26T05:39:44.491Z,39.24
2017-05-26T05:40:54.776Z,39.72
2017-05-26T05:42:05.117Z,39.34
2017-05-26T05:43:15.405Z,39.62
2017-05-26T05:44:25.625Z,39.72
2017-05-26T05:45:35.907Z,39.62
2017-05-26T05:46:46.200Z,39.43
2017-05-26T05:47:56.484Z,39.72
2017-05-26T05:49:06.781Z,39.91
2017-05-26T05:50:17.313Z,40.3
2017-05-26T05:51:27.601Z,40.39
2017-05-26T05:52:37.898Z,40.39
2017-05-26T05:53:48.205Z,40.37
2017-05-26T05:54:58.189Z,40.2
2017-05-26T05:56:08.410Z,40.2
2017-05-26T05:57:18.700Z,40.19
2017-05-26T05:58:28.668Z,40.37
2017-05-26T05:59:38.957Z,40.2
2017-05-26T06:00:48.933Z,40.28
2017-05-26T06:01:59.472Z,40.37
2017-05-26T06:03:09.757Z,40.49
2017-05-26T06:04:20.035Z,40.47
2017-05-26T06:05:30.335Z,40.66
2017-05-26T06:06:40.616Z,40.86
2017-05-26T06:07:51.155Z,40.69
2017-05-26T06:09:01.182Z,40.76
2017-05-26T06:10:11.476Z,40.76
2017-05-26T06:11:21.757Z,40.66
2017-05-26T06:12:31.736Z,40.66
2017-05-26T06:13:42.268Z,41.14
2017-05-26T06:14:52.553Z,40.66
2017-05-26T06:16:02.862Z,40.95
2017-05-26T06:17:13.146Z,41.05
2017-05-26T06:18:23.436Z,41.24
2017-05-26T06:19:33.705Z,41.24
2017-05-26T06:20:43.382Z,41.44
2017-05-26T06:21:53.357Z,41.05
2017-05-26T06:23:03.639Z,41.14
2017-05-26T06:24:13.607Z,41.14
2017-05-26T06:25:24.144Z,41.53
2017-05-26T06:26:34.108Z,41.63
2017-05-26T06:27:44.411Z,41.82
2017-05-26T06:28:54.696Z,41.53
2017-05-26T06:30:04.665Z,41.63
2017-05-26T06:31:15.195Z,41.82
2017-05-26T06:32:25.492Z,41.63
2017-05-26T06:33:35.771Z,41.63
2017-05-26T06:34:46.058Z,41.92
2017-05-26T06:35:56.355Z,41.82
2017-05-26T06:37:06.907Z,41.82
2017-05-26T06:38:16.565Z,41.82
2017-05-26T06:39:26.851Z,41.72
2017-05-26T06:40:37.127Z,41.63
2017-05-26T06:41:47.114Z,42.02
2017-05-26T06:42:57.649Z,41.82
2017-05-26T06:44:07.927Z,42.02
2017-05-26T06:45:17.590Z,41.92
2017-05-26T06:46:27.865Z,41.92
2017-05-26T06:47:38.150Z,41.92
2017-05-26T06:48:48.707Z,41.72
2017-05-26T06:49:58.696Z,41.72
2017-05-26T06:51:08.989Z,42.02
2017-05-26T06:52:18.954Z,41.92
2017-05-26T06:53:28.942Z,42.21
2017-05-26T06:54:39.483Z,42.49
2017-05-26T06:55:49.766Z,42.21
2017-05-26T06:57:00.051Z,42.21
2017-05-26T06:58:10.328Z,42.3
2017-05-26T06:59:20.618Z,42.3
2017-05-26T07:00:31.157Z,42.4
2017-05-26T07:01:41.439Z,42.3
2017-05-26T07:02:51.736Z,42.4
2017-05-26T07:04:01.711Z,42.69
2017-05-26T07:05:11.697Z,42.69
2017-05-26T07:06:22.280Z,42.21
2017-05-26T07:07:32.252Z,42.69
2017-05-26T07:08:42.547Z,42.4
2017-05-26T07:09:52.513Z,42.4
2017-05-26T07:11:02.500Z,42.59
2017-05-26T07:12:12.714Z,42.49
2017-05-26T07:13:23.005Z,42.59
2017-05-26T07:14:33.290Z,42.79
2017-05-26T07:15:43.575Z,42.59
2017-05-26T07:16:53.855Z,42.79
2017-05-26T07:18:04.394Z,42.79
2017-05-26T07:19:14.675Z,42.88
2017-05-26T07:20:24.961Z,43.07
2017-05-26T07:21:35.239Z,42.3
2017-05-26T07:22:45.540Z,42.59
2017-05-26T07:23:56.072Z,42.88
2017-05-26T07:25:06.373Z,42.69
2017-05-26T07:26:16.659Z,42.69
2017-05-26T07:27:26.947Z,42.69
2017-05-26T07:28:36.921Z,42.59
2017-05-26T07:29:47.473Z,42.59
2017-05-26T07:30:57.753Z,42.79
2017-05-26T07:32:08.050Z,42.59
2017-05-26T07:33:18.336Z,42.97
2017-05-26T07:34:28.617Z,43.17
2017-05-26T07:35:38.838Z,42.97
2017-05-26T07:36:49.118Z,43.07
2017-05-26T07:37:59.417Z,43.07
2017-05-26T07:39:09.704Z,42.79
2017-05-26T07:40:19.684Z,43.27
2017-05-26T07:41:29.904Z,43.27
2017-05-26T07:42:39.877Z,43.27
2017-05-26T07:43:50.173Z,43.27
2017-05-26T07:45:00.451Z,43.17
2017-05-26T07:46:10.418Z,43.07
2017-05-26T07:47:21.003Z,43.07
2017-05-26T07:48:31.294Z,43.46
2017-05-26T07:49:41.273Z,43.55
2017-05-26T07:50:51.234Z,43.07
2017-05-26T07:52:01.519Z,43.55
2017-05-26T07:53:12.075Z,42.97
2017-05-26T07:54:22.357Z,43.46
2017-05-26T07:55:32.654Z,43.46
2017-05-26T07:56:42.946Z,43.46
2017-05-26T07:57:52.925Z,43.37
2017-05-26T07:59:02.849Z,43.37
2017-05-26T08:00:13.138Z,43.37
2017-05-26T08:01:23.421Z,43.46
2017-05-26T08:02:33.703Z,43.37
2017-05-26T08:03:43.988Z,43.37
2017-05-26T08:04:54.605Z,43.37
2017-05-26T08:06:04.880Z,43.17
2017-05-26T08:07:15.157Z,43.37
2017-05-26T08:08:25.130Z,43.46
2017-05-26T08:09:35.426Z,43.27
2017-05-26T08:10:45.958Z,43.37
2017-05-26T08:11:55.915Z,43.27
2017-05-26T08:13:05.875Z,43.27
2017-05-26T08:14:16.156Z,43.55
2017-05-26T08:15:26.126Z,43.37
2017-05-26T08:16:36.344Z,43.37
2017-05-26T08:17:46.630Z,43.46
2017-05-26T08:18:56.919Z,43.27
2017-05-26T08:20:07.205Z,43.46
2017-05-26T08:21:17.488Z,43.55
2017-05-26T08:22:27.758Z,43.55
2017-05-26T08:23:38.040Z,43.75
2017-05-26T08:24:48.322Z,43.37
2017-05-26T08:25:57.978Z,43.37
2017-05-26T08:27:08.271Z,43.85
2017-05-26T08:28:18.819Z,43.46
2017-05-26T08:29:29.103Z,43.75
2017-05-26T08:30:39.399Z,43.85
2017-05-26T08:31:49.685Z,43.85
2017-05-26T08:32:59.350Z,43.55
2017-05-26T08:34:09.899Z,43.85
2017-05-26T08:35:20.188Z,43.85
2017-05-26T08:36:30.478Z,43.75
2017-05-26T08:37:40.757Z,43.65
2017-05-26T08:38:51.046Z,43.65
2017-05-26T08:40:01.585Z,43.75
2017-05-26T08:41:11.877Z,43.65
2017-05-26T08:42:22.159Z,43.65
2017-05-26T08:43:32.442Z,43.55
2017-05-26T08:44:42.750Z,43.46
2017-05-26T08:45:53.277Z,43.65
2017-05-26T08:47:03.585Z,43.65
2017-05-26T08:48:13.881Z,43.65
2017-05-26T08:49:24.170Z,43.46
2017-05-26T08:50:34.466Z,43.75
2017-05-26T08:51:45.010Z,43.65
2017-05-26T08:52:55.314Z,43.46
2017-05-26T08:54:05.602Z,43.46
2017-05-26T08:55:15.899Z,43.46
2017-05-26T08:56:25.884Z,43.46
2017-05-26T08:57:36.481Z,43.75
2017-05-26T08:58:46.449Z,43.75
2017-05-26T08:59:56.437Z,43.55
2017-05-26T09:01:06.425Z,43.55
2017-05-26T09:02:16.708Z,43.55
2017-05-26T09:03:26.931Z,43.46
2017-05-26T09:04:37.224Z,43.46
2017-05-26T09:05:47.514Z,43.55
2017-05-26T09:06:57.796Z,43.65
2017-05-26T09:08:08.081Z,43.75
2017-05-26T09:09:18.303Z,43.37
2017-05-26T09:10:28.283Z,43.55
2017-05-26T09:11:38.559Z,43.46
2017-05-26T09:12:48.839Z,43.65
2017-05-26T09:13:59.145Z,43.75
2017-05-26T09:15:09.701Z,43.55
2017-05-26T09:16:19.975Z,43.46
2017-05-26T09:17:30.256Z,43.55
2017-05-26T09:18:40.570Z,43.46
2017-05-26T09:19:50.852Z,43.65
2017-05-26T09:21:01.386Z,43.75
2017-05-26T09:22:11.359Z,43.75
2017-05-26T09:23:21.655Z,43.65
2017-05-26T09:24:31.935Z,43.65
2017-05-26T09:25:42.218Z,43.46
2017-05-26T09:26:52.138Z,43.65
2017-05-26T09:28:02.107Z,43.46
2017-05-26T09:29:12.403Z,43.65
2017-05-26T09:30:22.681Z,43.55
2017-05-26T09:31:32.344Z,43.65
2017-05-26T09:32:42.567Z,43.85
2017-05-26T09:33:52.545Z,43.75
2017-05-26T09:35:02.840Z,43.75
2017-05-26T09:36:12.495Z,43.75
2017-05-26T09:37:22.167Z,43.46
2017-05-26T09:38:32.700Z,43.75
2017-05-26T09:39:43.179Z,43.65
2017-05-26T09:40:53.162Z,43.75
2017-05-26T09:42:03.451Z,43.85
2017-05-26T09:43:13.733Z,43.75
2017-05-26T09:44:23.646Z,43.94
2017-05-26T09:45:33.933Z,43.85
2017-05-26T09:46:43.905Z,43.75
2017-05-26T09:47:53.880Z,43.75
2017-05-26T09:49:04.176Z,43.75
2017-05-26T09:50:14.749Z,43.75
2017-05-26T09:51:25.022Z,43.65
2017-05-26T09:52:35.321Z,43.85
2017-05-26T09:53:45.613Z,43.65
2017-05-26T09:54:55.902Z,43.65
2017-05-26T09:56:06.437Z,43.75
2017-05-26T09:57:16.405Z,43.65
2017-05-26T09:58:26.700Z,43.65
2017-05-26T09:59:36.996Z,43.77
2017-05-26T10:00:46.978Z,43.65
2017-05-26T10:01:57.517Z,43.75
2017-05-26T10:03:07.794Z,43.65
2017-05-26T10:04:17.777Z,43.65
2017-05-26T10:05:28.082Z,43.77
2017-05-26T10:06:38.365Z,43.77
2017-05-26T10:07:48.903Z,43.85
2017-05-26T10:08:59.192Z,43.65
2017-05-26T10:10:09.479Z,43.65
2017-05-26T10:11:19.758Z,43.65
2017-05-26T10:12:30.072Z,43.65
2017-05-26T10:13:40.617Z,43.77
2017-05-26T10:14:50.581Z,43.85
2017-05-26T10:16:00.895Z,43.85
2017-05-26T10:17:10.555Z,43.75
2017-05-26T10:18:20.905Z,43.77
2017-05-26T10:19:31.441Z,43.65
2017-05-26T10:20:41.725Z,43.65
2017-05-26T10:21:52.009Z,43.67
2017-05-26T10:23:02.292Z,43.77
2017-05-26T10:24:12.582Z,43.67
2017-05-26T10:25:23.123Z,43.38
2017-05-26T10:26:32.469Z,43.46
2017-05-26T10:27:42.124Z,43.58
2017-05-26T10:28:52.119Z,43.55
2017-05-26T10:30:02.423Z,43.67
2017-05-26T10:31:12.970Z,43.48
2017-05-26T10:32:23.265Z,43.46
2017-05-26T10:33:33.245Z,43.67
2017-05-26T10:34:43.526Z,43.58
2017-05-26T10:35:53.823Z,43.55
2017-05-26T10:37:04.369Z,43.67
2017-05-26T10:38:14.658Z,43.48
2017-05-26T10:39:24.989Z,43.55
2017-05-26T10:40:35.277Z,43.58
2017-05-26T10:41:45.564Z,43.77
2017-05-26T10:42:56.097Z,43.58
2017-05-26T10:44:06.394Z,43.55
2017-05-26T10:45:16.382Z,43.67
2017-05-26T10:46:26.733Z,43.67
2017-05-26T10:47:37.041Z,43.48
2017-05-26T10:48:47.582Z,43.77
2017-05-26T10:49:57.558Z,43.87
2017-05-26T10:51:07.859Z,43.96
2017-05-26T10:52:18.151Z,43.87
2017-05-26T10:53:28.139Z,44.15
2017-05-26T10:54:38.682Z,43.67
2017-05-26T10:55:48.651Z,44.25
2017-05-26T10:56:58.940Z,43.96
2017-05-26T10:58:09.251Z,43.87
2017-05-26T10:59:19.546Z,44.54
2017-05-26T11:00:30.084Z,44.06
2017-05-26T11:01:40.058Z,43.67
2017-05-26T11:02:50.345Z,43.77
2017-05-26T11:04:00.329Z,43.77
2017-05-26T11:05:10.660Z,43.96
2017-05-26T11:06:21.345Z,43.87
2017-05-26T11:07:31.637Z,43.67
2017-05-26T11:08:41.616Z,43.48
2017-05-26T11:09:51.924Z,43.96
2017-05-26T11:11:02.216Z,43.87
2017-05-26T11:12:12.774Z,43.96
2017-05-26T11:13:23.058Z,43.87
2017-05-26T11:14:33.044Z,43.67
2017-05-26T11:15:43.338Z,43.77
2017-05-26T11:16:53.316Z,43.77
2017-05-26T11:18:03.849Z,43.96
2017-05-26T11:19:14.149Z,43.87
2017-05-26T11:20:24.432Z,43.87
2017-05-26T11:21:34.714Z,43.77
2017-05-26T11:22:45.014Z,43.87
2017-05-26T11:23:55.252Z,43.77
2017-05-26T11:25:05.226Z,43.87
2017-05-26T11:26:15.509Z,43.77
2017-05-26T11:27:25.796Z,43.87
2017-05-26T11:28:35.772Z,43.87
2017-05-26T11:29:46.318Z,43.87
2017-05-26T11:30:56.609Z,43.96
2017-05-26T11:32:06.902Z,43.67
2017-05-26T11:33:17.190Z,43.96
2017-05-26T11:34:27.488Z,43.48
2017-05-26T11:35:38.085Z,43.77
2017-05-26T11:36:48.364Z,43.67
2017-05-26T11:37:58.647Z,43.67
2017-05-26T11:39:08.643Z,43.96
2017-05-26T11:40:18.625Z,43.67
2017-05-26T11:41:29.166Z,43.48
2017-05-26T11:42:39.470Z,43.48
2017-05-26T11:43:49.775Z,43.58
2017-05-26T11:45:00.067Z,43.58
2017-05-26T11:46:10.046Z,43.77
2017-05-26T11:47:20.582Z,43.87
2017-05-26T11:48:30.872Z,43.87
2017-05-26T11:49:41.162Z,43.77
2017-05-26T11:50:50.836Z,43.67
2017-05-26T11:52:01.118Z,43.67
2017-05-26T11:53:11.344Z,43.58
2017-05-26T11:54:21.666Z,43.58
2017-05-26T11:55:31.959Z,43.67
2017-05-26T11:56:41.938Z,43.67
2017-05-26T11:57:52.243Z,43.67
2017-05-26T11:59:02.481Z,43.58
2017-05-26T12:00:12.460Z,43.48
2017-05-26T12:01:22.437Z,43.58
2017-05-26T12:02:32.420Z,43.67
2017-05-26T12:03:42.720Z,43.96
2017-05-26T12:04:53.252Z,43.96
2017-05-26T12:06:03.546Z,43.77
2017-05-26T12:07:13.525Z,43.87
2017-05-26T12:08:23.804Z,43.96
2017-05-26T12:09:33.776Z,43.67
2017-05-26T12:10:43.999Z,43.77
2017-05-26T12:11:54.296Z,43.87
2017-05-26T12:13:04.273Z,43.87
2017-05-26T12:14:14.562Z,43.58
2017-05-26T12:15:24.549Z,43.48
2017-05-26T12:16:35.088Z,43.77
2017-05-26T12:17:45.387Z,43.87
2017-05-26T12:18:55.060Z,43.77
2017-05-26T12:20:04.728Z,43.77
2017-05-26T12:21:15.011Z,43.77
2017-05-26T12:22:25.240Z,43.67
2017-05-26T12:23:35.219Z,43.67
2017-05-26T12:24:45.504Z,43.96
2017-05-26T12:25:55.491Z,43.77
2017-05-26T12:27:05.776Z,43.77
2017-05-26T12:28:16.322Z,43.58
2017-05-26T12:29:26.306Z,43.48
2017-05-26T12:30:36.272Z,43.48
2017-05-26T12:31:46.266Z,43.48
2017-05-26T12:32:55.939Z,43.48
2017-05-26T12:34:06.473Z,43.67
2017-05-26T12:35:16.842Z,43.48
2017-05-26T12:36:26.825Z,43.58
2017-05-26T12:37:37.114Z,44.06
2017-05-26T12:38:47.406Z,43.67
2017-05-26T12:39:57.962Z,43.77
2017-05-26T12:41:08.249Z,43.67
2017-05-26T12:42:18.530Z,43.38
2017-05-26T12:43:28.499Z,43.48
2017-05-26T12:44:38.781Z,43.38
2017-05-26T12:45:49.012Z,43.38
2017-05-26T12:46:59.297Z,43.29
2017-05-26T12:48:09.609Z,43.58
2017-05-26T12:49:19.577Z,43.48
2017-05-26T12:50:29.874Z,43.58
2017-05-26T12:51:40.115Z,43.38
2017-05-26T12:52:50.086Z,43.1
2017-05-26T12:54:00.383Z,42.9
2017-05-26T12:55:10.354Z,43.19
2017-05-26T12:56:20.648Z,43.38
2017-05-26T12:57:30.566Z,43.58
2017-05-26T12:58:40.843Z,43.38
2017-05-26T12:59:50.523Z,43.48
2017-05-26T13:01:00.498Z,43.38
2017-05-26T13:02:10.802Z,43.48
2017-05-26T13:03:21.347Z,43.48
2017-05-26T13:04:31.343Z,43.58
2017-05-26T13:05:41.318Z,43.31
2017-05-26T13:06:51.313Z,43.58
2017-05-26T13:08:01.299Z,43.48
2017-05-26T13:09:11.839Z,43.48
2017-05-26T13:10:21.811Z,43.38
2017-05-26T13:11:32.106Z,43.1
2017-05-26T13:12:42.396Z,43.38
2017-05-26T13:13:52.684Z,43.48
2017-05-26T13:15:03.240Z,43.19
2017-05-26T13:16:13.532Z,43.48
2017-05-26T13:17:23.825Z,43.58
2017-05-26T13:18:33.813Z,43.41
2017-05-26T13:19:43.786Z,43.38
2017-05-26T13:20:54.330Z,43.38
2017-05-26T13:22:03.985Z,43.48
2017-05-26T13:23:14.266Z,43.48
2017-05-26T13:24:24.545Z,43.48
2017-05-26T13:25:34.526Z,43.38
2017-05-26T13:26:45.065Z,43.19
2017-05-26T13:27:55.347Z,43.48
2017-05-26T13:29:05.630Z,43
2017-05-26T13:30:15.942Z,43.1
2017-05-26T13:31:25.629Z,43.19
2017-05-26T13:32:35.851Z,43.12
2017-05-26T13:33:46.136Z,43.38
2017-05-26T13:34:56.109Z,43.38
2017-05-26T13:36:05.462Z,43.38
2017-05-26T13:37:15.436Z,43.38
2017-05-26T13:38:25.972Z,43.48
2017-05-26T13:39:35.626Z,43.38
2017-05-26T13:40:45.609Z,43.38
2017-05-26T13:41:55.891Z,43.38
2017-05-26T13:43:05.867Z,43.29
2017-05-26T13:44:16.469Z,43.48
2017-05-26T13:45:26.438Z,43.87
2017-05-26T13:46:36.732Z,43.77
2017-05-26T13:47:47.016Z,43.67
2017-05-26T13:48:57.310Z,43.77
2017-05-26T13:50:07.981Z,43.48
2017-05-26T13:51:18.343Z,43.67
2017-05-26T13:52:28.623Z,43.38
2017-05-26T13:53:38.906Z,43.96
2017-05-26T13:54:49.190Z,43.96
2017-05-26T13:55:59.429Z,43.98
2017-05-26T13:57:09.703Z,43.67
2017-05-26T13:58:19.694Z,43.77
2017-05-26T13:59:29.987Z,43.79
2017-05-26T14:00:39.954Z,43.96
2017-05-26T14:01:50.492Z,43.58
2017-05-26T14:03:00.770Z,43.5
2017-05-26T14:04:11.074Z,43.77
2017-05-26T14:05:21.359Z,43.77
2017-05-26T14:06:31.652Z,43.58
2017-05-26T14:07:42.231Z,43.48
2017-05-26T14:08:51.590Z,43.5
2017-05-26T14:10:01.560Z,43.67
2017-05-26T14:11:11.842Z,43.77
2017-05-26T14:12:21.822Z,43.67
2017-05-26T14:13:32.038Z,43.89
2017-05-26T14:14:42.340Z,43.79
2017-05-26T14:15:52.652Z,43.77
2017-05-26T14:17:02.635Z,43.48
2017-05-26T14:18:12.921Z,43.29
2017-05-26T14:19:23.135Z,43.38
2017-05-26T14:20:32.793Z,43.48
2017-05-26T14:21:42.766Z,43.48
2017-05-26T14:22:52.743Z,43
2017-05-26T14:24:03.033Z,43.19
2017-05-26T14:25:13.565Z,43
2017-05-26T14:26:23.547Z,43.19
2017-05-26T14:27:33.532Z,43.31
2017-05-26T14:28:43.815Z,42.9
2017-05-26T14:29:54.107Z,43
2017-05-26T14:31:04.330Z,43
2017-05-26T14:32:14.612Z,42.83
2017-05-26T14:33:24.900Z,42.8
2017-05-26T14:34:35.185Z,42.73
2017-05-26T14:35:45.479Z,42.61
2017-05-26T14:36:55.388Z,42.8
2017-05-26T14:38:05.680Z,42.63
2017-05-26T14:39:15.660Z,42.35
2017-05-26T14:40:25.953Z,42.52
2017-05-26T14:41:36.239Z,42.71
2017-05-26T14:42:46.464Z,42.54
2017-05-26T14:43:56.748Z,42.42
2017-05-26T14:45:07.028Z,42.42
2017-05-26T14:46:17.000Z,42.32
2017-05-26T14:47:27.299Z,42.32
2017-05-26T14:48:37.837Z,42.23
2017-05-26T14:49:47.817Z,42.03
2017-05-26T14:50:58.106Z,42.23
2017-05-26T14:52:08.385Z,42.25
2017-05-26T14:53:18.367Z,41.84
2017-05-26T14:54:28.900Z,41.94
2017-05-26T14:55:39.192Z,41.96
2017-05-26T14:56:49.502Z,41.84
2017-05-26T14:57:59.474Z,41.96
2017-05-26T14:59:09.763Z,41.57
2017-05-26T15:00:20.297Z,41.57
2017-05-26T15:01:30.283Z,41.75
2017-05-26T15:02:40.255Z,41.96
2017-05-26T15:03:50.548Z,41.96
2017-05-26T15:05:00.521Z,41.65
2017-05-26T15:06:10.740Z,41.67